Time;durP1;ratioP1;P1;durP2;ratioP2;P2;SDS_P1;SDS_P2;PMS_P1;PMS_P2;Temp;Humidity;BMP_temperature;BMP_pressure;BME280_temperature;BME280_humidity;BME280_pressure;Samples;Min_cycle;Max_cycle;Signal;HPM_P1;HPM_P2
2021/07/18 19:21:40;;;;;;;5.88;4.20;;;23.50;75.60;;;;;;2121363;27;20104;-72
2021/07/18 19:22:42;;;;;;;5.00;3.95;;;23.20;76.30;;;;;;2121168;28;20055;-75
2021/07/18 19:23:42;;;;;;;6.63;3.95;;;23.20;76.60;;;;;;2121386;28;20411;-71
2021/07/18 19:24:44;;;;;;;6.47;3.90;;;23.10;77.00;;;;;;2122064;28;20053;-72
2021/07/18 19:25:45;;;;;;;7.45;4.15;;;23.10;77.10;;;;;;2121371;28;20114;-71
2021/07/18 19:26:46;;;;;;;7.18;3.95;;;23.10;77.10;;;;;;2120904;28;20015;-74
2021/07/18 19:27:47;;;;;;;7.00;4.38;;;23.10;77.10;;;;;;2121365;28;20137;-72
2021/07/18 19:28:48;;;;;;;7.60;4.50;;;23.10;77.40;;;;;;2112565;28;20028;-72
2021/07/18 19:29:52;;;;;;;6.57;4.00;;;23.00;77.30;;;;;;2104266;28;20420;-72
2021/07/18 19:30:54;;;;;;;6.05;4.30;;;23.00;77.60;;;;;;2112755;28;20515;-71
2021/07/18 19:31:54;;;;;;;5.97;4.00;;;23.00;77.80;;;;;;2120889;28;20039;-74
2021/07/18 19:32:55;;;;;;;5.43;4.13;;;23.00;77.90;;;;;;2112362;28;20119;-73
2021/07/18 19:33:58;;;;;;;10.07;4.60;;;22.90;78.00;;;;;;2112758;28;20032;-72
2021/07/18 19:35:01;;;;;;;6.65;4.65;;;23.00;78.00;;;;;;2112041;28;20019;-74
2021/07/18 19:36:07;;;;;;;7.90;4.35;;;23.00;78.20;;;;;;2121373;28;20023;-69
2021/07/18 19:37:08;;;;;;;8.07;4.35;;;22.90;78.40;;;;;;2120482;28;20027;-70
2021/07/18 19:38:11;;;;;;;6.97;4.45;;;22.90;78.70;;;;;;2112523;28;20024;-69
2021/07/18 19:39:12;;;;;;;6.50;4.20;;;22.90;78.70;;;;;;2120987;28;20030;-73
2021/07/18 19:40:15;;;;;;;4.80;4.00;;;22.80;78.80;;;;;;2120513;28;20031;-71
2021/07/18 19:41:16;;;;;;;5.88;4.40;;;22.80;79.20;;;;;;2112414;28;20024;-72
2021/07/18 19:42:16;;;;;;;7.38;4.40;;;22.80;79.90;;;;;;2121740;28;20035;-71
2021/07/18 19:43:19;;;;;;;9.40;4.32;;;22.70;79.80;;;;;;2121889;27;20469;-72
2021/07/18 19:44:20;;;;;;;7.30;4.30;;;22.70;79.90;;;;;;2121818;28;20035;-70
2021/07/18 19:45:21;;;;;;;4.68;3.95;;;22.70;80.10;;;;;;2111996;28;20033;-70
2021/07/18 19:46:22;;;;;;;6.57;4.13;;;22.60;80.20;;;;;;2113172;28;20038;-70
2021/07/18 19:47:23;;;;;;;6.00;3.90;;;22.60;80.50;;;;;;2113165;28;20039;-70
2021/07/18 19:48:23;;;;;;;5.00;4.07;;;22.60;81.20;;;;;;2121502;28;20026;-72
2021/07/18 19:49:27;;;;;;;6.95;3.92;;;22.60;81.30;;;;;;2122045;28;20525;-71
2021/07/18 19:50:28;;;;;;;5.80;3.90;;;22.60;81.60;;;;;;2120939;28;20030;-70
2021/07/18 19:51:38;;;;;;;5.85;3.85;;;22.50;81.60;;;;;;2120840;28;20035;-72
2021/07/18 19:52:40;;;;;;;4.70;4.00;;;22.50;81.90;;;;;;2121236;28;20019;-71
2021/07/18 19:53:42;;;;;;;5.45;4.00;;;22.50;82.30;;;;;;2112851;28;20399;-72
2021/07/18 19:54:43;;;;;;;4.47;3.78;;;22.50;82.60;;;;;;2112369;28;20066;-72
2021/07/18 19:55:43;;;;;;;5.90;3.97;;;22.50;82.80;;;;;;2103469;28;20020;-73
2021/07/18 19:56:44;;;;;;;5.00;3.70;;;22.40;83.40;;;;;;2104150;28;20043;-73
2021/07/18 19:57:45;;;;;;;5.00;3.65;;;22.40;83.90;;;;;;2121708;28;20038;-72
2021/07/18 19:58:46;;;;;;;6.78;3.88;;;22.40;84.30;;;;;;2122377;28;20047;-72
2021/07/18 19:59:46;;;;;;;4.78;3.72;;;22.30;84.40;;;;;;2121766;28;20027;-71
2021/07/18 20:00:47;;;;;;;5.45;3.78;;;22.30;84.70;;;;;;2121293;28;20096;-72
2021/07/18 20:01:48;;;;;;;5.68;3.90;;;22.30;85.10;;;;;;2112101;28;20556;-71
2021/07/18 20:02:49;;;;;;;4.47;3.60;;;22.30;85.60;;;;;;2103604;28;20039;-70
2021/07/18 20:03:56;;;;;;;4.95;3.80;;;22.30;87.20;;;;;;2112104;28;20081;-74
2021/07/18 20:04:56;;;;;;;5.30;3.80;;;22.30;87.90;;;;;;2120294;28;20031;-70
2021/07/18 20:05:57;;;;;;;4.53;3.42;;;22.20;88.60;;;;;;2120903;28;20176;-71
2021/07/18 20:06:58;;;;;;;5.63;3.50;;;22.20;89.10;;;;;;2121133;28;20428;-70
2021/07/18 20:07:58;;;;;;;4.13;3.45;;;22.20;89.40;;;;;;2122818;28;20032;-71
2021/07/18 20:08:59;;;;;;;4.25;3.58;;;22.10;89.80;;;;;;2121992;28;20028;-71
2021/07/18 20:10:00;;;;;;;4.25;3.40;;;22.10;90.10;;;;;;2121979;28;20042;-73
2021/07/18 20:11:01;;;;;;;5.82;3.50;;;22.10;90.30;;;;;;2112915;28;20024;-71
2021/07/18 20:12:01;;;;;;;5.00;3.35;;;22.10;90.60;;;;;;2112222;28;20035;-70
2021/07/18 20:13:10;;;;;;;3.58;3.28;;;22.10;90.90;;;;;;2122139;28;20023;-71
2021/07/18 20:14:11;;;;;;;3.53;3.22;;;22.10;91.40;;;;;;2120485;28;20027;-68
2021/07/18 20:15:12;;;;;;;3.97;3.40;;;22.00;91.90;;;;;;2121064;28;20065;-72
2021/07/18 20:16:12;;;;;;;4.18;3.50;;;22.00;92.00;;;;;;2121176;28;20039;-72
2021/07/18 20:17:15;;;;;;;4.65;3.38;;;22.00;92.10;;;;;;2120270;28;20582;-69
2021/07/18 20:18:19;;;;;;;5.18;3.65;;;21.90;92.30;;;;;;2122829;28;20418;-71
2021/07/18 20:19:19;;;;;;;4.03;3.45;;;21.90;92.60;;;;;;2122089;28;20026;-71
2021/07/18 20:20:20;;;;;;;5.30;3.60;;;21.90;92.80;;;;;;2121537;28;20058;-72
2021/07/18 20:21:22;;;;;;;5.13;3.70;;;21.80;92.90;;;;;;2120474;28;20122;-72
2021/07/18 20:22:23;;;;;;;4.53;3.80;;;21.80;93.00;;;;;;2113088;28;20027;-72
2021/07/18 20:23:23;;;;;;;5.07;3.53;;;21.80;93.30;;;;;;2121556;28;20465;-72
2021/07/18 20:24:24;;;;;;;4.00;3.60;;;21.70;93.40;;;;;;2121500;28;20030;-70
2021/07/18 20:25:25;;;;;;;6.60;3.78;;;21.70;93.50;;;;;;2111988;28;20460;-72
2021/07/18 20:26:25;;;;;;;4.05;3.65;;;21.70;93.70;;;;;;2112265;28;20032;-71
2021/07/18 20:27:26;;;;;;;4.00;3.60;;;21.70;93.80;;;;;;2112271;28;20056;-72
2021/07/18 20:28:27;;;;;;;5.50;3.63;;;21.70;94.00;;;;;;2121338;28;20027;-71
2021/07/18 20:29:28;;;;;;;4.20;3.70;;;21.70;93.90;;;;;;2122347;28;20027;-73
2021/07/18 20:30:29;;;;;;;4.35;3.55;;;21.70;94.10;;;;;;2122053;28;20031;-71
2021/07/18 20:31:30;;;;;;;5.05;3.90;;;21.60;94.20;;;;;;2122411;28;20047;-76
2021/07/18 20:32:30;;;;;;;4.10;3.42;;;21.60;94.10;;;;;;2120060;28;20115;-76
2021/07/18 20:33:33;;;;;;;4.20;3.65;;;21.60;94.00;;;;;;2110743;28;20036;-75
2021/07/18 20:34:34;;;;;;;4.25;3.80;;;21.60;94.00;;;;;;2120925;28;20503;-75
2021/07/18 20:35:37;;;;;;;6.30;3.60;;;21.60;94.10;;;;;;2121131;28;20024;-75
2021/07/18 20:36:38;;;;;;;5.03;3.67;;;21.60;94.50;;;;;;2119970;28;20016;-75
2021/07/18 20:37:39;;;;;;;4.47;3.80;;;21.60;94.90;;;;;;2121065;28;20031;-75
2021/07/18 20:38:40;;;;;;;4.57;3.83;;;21.60;95.00;;;;;;2118841;28;20031;-75
2021/07/18 20:39:40;;;;;;;4.28;3.88;;;21.50;95.10;;;;;;2115919;28;20023;-75
2021/07/18 20:40:41;;;;;;;4.55;3.80;;;21.50;95.40;;;;;;2099264;28;20124;-75
2021/07/18 20:41:42;;;;;;;4.95;3.90;;;21.50;95.60;;;;;;2090590;28;20033;-75
2021/07/18 20:42:42;;;;;;;5.57;4.00;;;21.40;95.60;;;;;;2106888;28;20031;-76
2021/07/18 20:43:45;;;;;;;5.22;4.32;;;21.40;95.90;;;;;;2115726;28;20592;-76
2021/07/18 20:44:47;;;;;;;4.55;3.80;;;21.40;96.10;;;;;;2115514;28;20489;-76
2021/07/18 20:45:47;;;;;;;6.13;4.18;;;21.40;96.10;;;;;;2115115;28;20140;-74
2021/07/18 20:46:48;;;;;;;6.30;4.00;;;21.40;95.90;;;;;;2115198;28;20103;-75
2021/07/18 20:47:52;;;;;;;4.50;3.75;;;21.30;96.20;;;;;;2115758;28;20011;-75
2021/07/18 20:48:52;;;;;;;7.68;3.85;;;21.30;96.10;;;;;;2116055;28;20459;-74
2021/07/18 20:49:54;;;;;;;5.00;4.00;;;21.30;95.80;;;;;;2115558;28;20110;-71
2021/07/18 20:50:55;;;;;;;4.93;3.90;;;21.30;95.90;;;;;;2115508;27;20028;-73
2021/07/18 20:51:55;;;;;;;5.97;4.03;;;21.20;96.00;;;;;;2117853;28;20031;-71
2021/07/18 20:52:56;;;;;;;5.25;3.67;;;21.30;95.40;;;;;;2116520;28;20051;-75
2021/07/18 20:53:57;;;;;;;6.30;3.83;;;21.20;95.40;;;;;;2116052;28;20582;-74
2021/07/18 20:54:58;;;;;;;4.63;3.70;;;21.20;95.30;;;;;;2115365;28;20019;-74
2021/07/18 20:55:59;;;;;;;5.53;3.80;;;21.30;95.50;;;;;;2108180;28;20885;-74
2021/07/18 20:56:59;;;;;;;5.32;4.05;;;21.20;95.30;;;;;;2118256;28;20024;-73
2021/07/18 20:58:00;;;;;;;4.05;3.63;;;21.20;95.50;;;;;;2106513;28;20036;-74
2021/07/18 20:59:02;;;;;;;6.43;4.20;;;21.20;95.70;;;;;;2107191;28;20028;-72
2021/07/18 21:00:05;;;;;;;5.28;3.92;;;21.20;95.70;;;;;;2106738;28;20040;-73
2021/07/18 21:01:06;;;;;;;6.35;3.83;;;21.20;96.10;;;;;;2108731;28;20113;-73
2021/07/18 21:02:06;;;;;;;4.63;3.70;;;21.20;97.10;;;;;;2115514;28;20015;-72
2021/07/18 21:03:07;;;;;;;5.25;3.85;;;21.20;97.60;;;;;;2115893;28;20035;-72
2021/07/18 21:04:08;;;;;;;5.30;3.90;;;21.20;98.00;;;;;;2116511;28;20035;-74
2021/07/18 21:05:09;;;;;;;5.88;4.05;;;21.10;98.40;;;;;;2116127;28;20035;-73
2021/07/18 21:06:10;;;;;;;4.85;3.97;;;21.20;97.80;;;;;;2115681;28;20200;-73
2021/07/18 21:07:13;;;;;;;5.78;4.00;;;21.10;97.40;;;;;;2115697;28;20482;-71
2021/07/18 21:08:13;;;;;;;8.18;4.53;;;21.10;96.90;;;;;;2115756;28;20428;-71
2021/07/18 21:09:14;;;;;;;7.57;4.68;;;21.10;97.10;;;;;;2115478;28;20092;-72
2021/07/18 21:10:18;;;;;;;8.77;4.40;;;21.10;97.20;;;;;;2115964;28;20650;-71
2021/07/18 21:11:18;;;;;;;6.85;4.13;;;21.10;97.40;;;;;;2116024;28;20113;-70
2021/07/18 21:12:19;;;;;;;4.38;3.97;;;21.00;97.50;;;;;;2107061;28;20144;-71
2021/07/18 21:13:20;;;;;;;4.13;3.72;;;21.00;97.60;;;;;;2098589;28;20096;-71
2021/07/18 21:14:20;;;;;;;5.53;3.92;;;21.00;97.60;;;;;;2106983;28;20024;-70
2021/07/18 21:15:28;;;;;;;4.75;3.90;;;21.00;97.80;;;;;;2114639;28;20077;-72
2021/07/18 21:16:31;;;;;;;6.88;4.00;;;21.00;97.80;;;;;;2114764;28;20537;-73
2021/07/18 21:17:32;;;;;;;5.20;3.90;;;21.00;98.00;;;;;;2115641;28;20027;-74
2021/07/18 21:18:34;;;;;;;5.47;3.85;;;21.00;98.40;;;;;;2116118;28;20055;-71
2021/07/18 21:19:35;;;;;;;5.55;3.78;;;20.90;98.90;;;;;;2116017;28;20758;-72
2021/07/18 21:20:36;;;;;;;4.93;4.10;;;20.90;99.30;;;;;;2115860;28;20015;-71
2021/07/18 21:21:36;;;;;;;6.20;4.22;;;20.90;99.30;;;;;;2114248;28;20583;-71
2021/07/18 21:22:38;;;;;;;5.20;4.15;;;20.90;99.60;;;;;;2116198;28;20036;-72
2021/07/18 21:23:39;;;;;;;4.40;3.80;;;20.90;99.80;;;;;;2116506;28;20076;-71
2021/07/18 21:24:40;;;;;;;6.28;3.78;;;20.80;99.90;;;;;;2115310;28;20441;-72
2021/07/18 21:25:40;;;;;;;5.57;4.25;;;20.80;99.90;;;;;;2114542;28;20177;-71
2021/07/18 21:26:41;;;;;;;5.40;4.03;;;20.80;99.90;;;;;;2105359;28;20048;-70
2021/07/18 21:27:46;;;;;;;4.93;3.90;;;20.70;99.90;;;;;;2114180;28;20028;-70
2021/07/18 21:28:47;;;;;;;4.35;3.90;;;20.70;99.90;;;;;;2114189;28;20024;-68
2021/07/18 21:29:47;;;;;;;4.78;3.65;;;20.70;99.90;;;;;;2105570;28;20552;-69
2021/07/18 21:30:48;;;;;;;5.90;4.10;;;20.70;99.90;;;;;;2113551;28;20028;-70
2021/07/18 21:31:51;;;;;;;4.30;3.90;;;20.70;99.90;;;;;;2113347;28;20719;-69
2021/07/18 21:32:52;;;;;;;7.50;4.20;;;20.60;99.90;;;;;;2114062;28;20028;-69
2021/07/18 21:33:52;;;;;;;7.55;3.95;;;20.60;99.90;;;;;;2105631;28;20198;-69
2021/07/18 21:34:53;;;;;;;5.13;3.80;;;20.60;99.90;;;;;;2104955;28;20024;-72
2021/07/18 21:35:54;;;;;;;8.70;4.13;;;20.60;99.90;;;;;;2114156;28;20074;-73
2021/07/18 21:36:54;;;;;;;8.15;4.40;;;20.60;99.90;;;;;;2113929;28;20031;-73
2021/07/18 21:37:57;;;;;;;11.95;4.22;;;20.60;99.90;;;;;;2114589;28;20525;-71
2021/07/18 21:38:57;;;;;;;5.25;4.10;;;20.50;99.90;;;;;;2113238;28;20760;-72
2021/07/18 21:39:58;;;;;;;8.32;4.55;;;20.50;99.90;;;;;;2114066;28;20024;-71
2021/07/18 21:41:00;;;;;;;8.07;4.20;;;20.50;99.90;;;;;;2113366;28;20028;-71
2021/07/18 21:42:00;;;;;;;6.32;4.38;;;20.50;99.90;;;;;;2104810;28;20601;-70
2021/07/18 21:43:02;;;;;;;6.15;4.25;;;20.50;99.90;;;;;;2104428;28;20024;-70
2021/07/18 21:44:03;;;;;;;7.55;4.25;;;20.50;99.90;;;;;;2113242;28;20559;-71
2021/07/18 21:45:05;;;;;;;7.00;4.38;;;20.50;99.90;;;;;;2113394;28;20028;-70
2021/07/18 21:46:06;;;;;;;6.20;4.43;;;20.50;99.90;;;;;;2114412;28;20498;-72
2021/07/18 21:47:07;;;;;;;4.82;4.05;;;20.40;99.90;;;;;;2114290;28;20032;-73
2021/07/18 21:48:08;;;;;;;5.55;4.30;;;20.40;99.90;;;;;;2114410;28;20088;-70
2021/07/18 21:49:08;;;;;;;6.18;4.18;;;20.40;99.90;;;;;;2114454;28;20550;-71
2021/07/18 21:50:09;;;;;;;6.35;4.45;;;20.40;99.90;;;;;;2113842;28;20121;-71
2021/07/18 21:51:10;;;;;;;5.97;4.60;;;20.40;99.90;;;;;;2104742;28;20065;-70
2021/07/18 21:52:11;;;;;;;7.10;4.68;;;20.40;99.90;;;;;;2113733;28;20115;-72
2021/07/18 21:53:11;;;;;;;7.15;4.22;;;20.40;99.90;;;;;;2105188;28;20032;-69
2021/07/18 21:54:12;;;;;;;5.70;4.10;;;20.30;99.90;;;;;;2105351;28;20414;-69
2021/07/18 21:55:16;;;;;;;4.93;4.30;;;20.40;99.90;;;;;;2114043;28;20039;-69
2021/07/18 21:56:16;;;;;;;5.38;4.50;;;20.30;99.90;;;;;;2114640;28;20350;-69
2021/07/18 21:57:17;;;;;;;5.00;4.30;;;20.30;99.90;;;;;;2114493;28;20055;-69
2021/07/18 21:58:18;;;;;;;5.82;4.57;;;20.30;99.90;;;;;;2115122;28;20076;-70
2021/07/18 21:59:19;;;;;;;6.68;4.50;;;20.30;99.90;;;;;;2114570;28;20394;-69
2021/07/18 22:00:22;;;;;;;4.72;4.20;;;20.30;99.90;;;;;;2113919;28;20023;-70
2021/07/18 22:01:23;;;;;;;8.68;4.70;;;20.20;99.90;;;;;;2113699;28;20042;-69
2021/07/18 22:02:24;;;;;;;5.40;4.32;;;20.20;99.90;;;;;;2114488;28;20388;-71
2021/07/18 22:03:25;;;;;;;5.68;4.20;;;20.20;99.90;;;;;;2105561;28;20034;-70
2021/07/18 22:04:25;;;;;;;7.20;4.43;;;20.20;99.90;;;;;;2105763;28;20110;-71
2021/07/18 22:05:26;;;;;;;7.70;4.63;;;20.20;99.90;;;;;;2114152;28;20031;-70
2021/07/18 22:06:26;;;;;;;5.60;4.30;;;20.20;99.90;;;;;;2114293;28;20106;-70
2021/07/18 22:07:27;;;;;;;6.30;4.60;;;20.10;99.90;;;;;;2113385;28;20035;-72
2021/07/18 22:08:29;;;;;;;7.97;4.70;;;20.10;99.90;;;;;;2105230;28;20067;-71
2021/07/18 22:09:30;;;;;;;8.48;4.70;;;20.10;99.90;;;;;;2113699;28;20045;-70
2021/07/18 22:10:33;;;;;;;7.10;4.78;;;20.10;99.90;;;;;;2114427;28;20479;-70
2021/07/18 22:11:34;;;;;;;6.78;4.78;;;20.10;99.90;;;;;;2113772;28;20488;-73
2021/07/18 22:12:34;;;;;;;5.78;4.63;;;20.10;99.90;;;;;;2114176;28;20562;-72
2021/07/18 22:13:35;;;;;;;6.03;4.30;;;20.10;99.90;;;;;;2114277;28;20055;-68
2021/07/18 22:14:36;;;;;;;5.90;4.30;;;20.10;99.90;;;;;;2113611;28;20065;-69
2021/07/18 22:15:39;;;;;;;5.78;4.53;;;20.10;99.90;;;;;;2113284;28;20031;-69
2021/07/18 22:16:40;;;;;;;5.93;4.53;;;20.10;99.90;;;;;;2114326;28;20016;-69
2021/07/18 22:17:40;;;;;;;5.82;4.60;;;20.10;99.90;;;;;;2114424;28;20019;-71
2021/07/18 22:18:41;;;;;;;5.68;4.50;;;20.10;99.90;;;;;;2114209;28;20076;-72
2021/07/18 22:19:42;;;;;;;5.55;4.50;;;20.10;99.90;;;;;;2114545;28;20439;-71
2021/07/18 22:20:44;;;;;;;6.40;4.40;;;20.00;99.90;;;;;;2114209;28;20028;-70
2021/07/18 22:21:45;;;;;;;7.28;4.88;;;20.00;99.90;;;;;;2114495;28;20031;-70
2021/07/18 22:22:47;;;;;;;7.47;5.28;;;20.00;99.90;;;;;;2114188;28;20038;-71
2021/07/18 22:23:47;;;;;;;7.50;4.90;;;20.00;99.90;;;;;;2114436;28;20107;-73
2021/07/18 22:24:48;;;;;;;6.07;4.93;;;19.90;99.90;;;;;;2113851;28;20042;-70
2021/07/18 22:25:49;;;;;;;7.20;5.15;;;19.90;99.90;;;;;;2113838;28;20031;-71
2021/07/18 22:26:49;;;;;;;6.25;4.90;;;19.90;99.90;;;;;;2105251;28;20020;-69
2021/07/18 22:27:50;;;;;;;6.45;5.18;;;19.90;99.90;;;;;;2105383;28;20055;-70
2021/07/18 22:28:51;;;;;;;10.93;5.95;;;19.90;99.90;;;;;;2114273;28;20025;-69
2021/07/18 22:29:51;;;;;;;9.80;6.13;;;19.90;99.90;;;;;;2113628;28;20470;-70
2021/07/18 22:30:53;;;;;;;8.30;6.07;;;19.80;99.90;;;;;;2104852;28;20031;-69
2021/07/18 22:31:54;;;;;;;7.82;5.95;;;19.80;99.90;;;;;;2113777;28;20026;-70
2021/07/18 22:32:55;;;;;;;8.82;6.10;;;19.80;99.90;;;;;;2113999;28;20039;-70
2021/07/18 22:33:56;;;;;;;7.75;5.88;;;19.80;99.90;;;;;;2114190;28;20023;-69
2021/07/18 22:34:56;;;;;;;9.98;6.30;;;19.80;99.90;;;;;;2104288;28;20065;-69
2021/07/18 22:35:59;;;;;;;8.52;6.07;;;19.80;99.90;;;;;;2104996;28;20028;-70
2021/07/18 22:37:00;;;;;;;8.70;5.70;;;19.90;99.90;;;;;;2114280;28;20442;-70
2021/07/18 22:38:03;;;;;;;7.35;5.70;;;19.90;99.90;;;;;;2114014;28;20027;-70
2021/07/18 22:39:09;;;;;;;6.32;5.30;;;19.90;99.90;;;;;;2104804;28;20410;-70
2021/07/18 22:40:12;;;;;;;7.38;5.35;;;19.90;99.90;;;;;;2106013;28;20020;-70
2021/07/18 22:41:16;;;;;;;8.20;5.65;;;19.90;99.90;;;;;;2113607;28;20040;-69
2021/07/18 22:42:17;;;;;;;9.00;5.30;;;19.90;99.90;;;;;;2113133;28;20030;-70
2021/07/18 22:43:18;;;;;;;9.60;5.50;;;19.90;99.90;;;;;;2113303;28;20437;-69
2021/07/18 22:44:19;;;;;;;8.10;5.47;;;20.00;99.90;;;;;;2114069;28;20031;-69
2021/07/18 22:45:24;;;;;;;6.65;4.90;;;20.00;99.90;;;;;;2113124;28;20497;-70
2021/07/18 22:46:24;;;;;;;6.78;5.10;;;20.00;99.90;;;;;;2114436;28;20114;-70
2021/07/18 22:47:25;;;;;;;7.03;5.30;;;20.00;99.90;;;;;;2114312;28;20028;-68
2021/07/18 22:48:25;;;;;;;8.05;5.38;;;20.00;99.90;;;;;;2104860;28;20509;-71
2021/07/18 22:49:26;;;;;;;7.18;5.50;;;20.00;99.90;;;;;;2113437;28;20035;-72
2021/07/18 22:50:28;;;;;;;8.43;5.75;;;20.00;99.90;;;;;;2113964;28;20035;-71
2021/07/18 22:51:28;;;;;;;5.90;5.13;;;20.00;99.90;;;;;;2113634;28;20035;-71
2021/07/18 22:52:29;;;;;;;9.20;5.07;;;20.10;99.90;;;;;;2113697;28;20398;-71
2021/07/18 22:53:29;;;;;;;7.60;4.90;;;20.00;99.90;;;;;;2113734;28;20020;-71
2021/07/18 22:54:30;;;;;;;7.05;5.00;;;20.00;99.90;;;;;;2113965;28;20050;-71
2021/07/18 22:55:34;;;;;;;6.55;4.85;;;20.00;99.90;;;;;;2113439;28;20589;-71
2021/07/18 22:56:35;;;;;;;7.10;4.70;;;20.00;99.90;;;;;;2113052;28;20026;-71
2021/07/18 22:57:36;;;;;;;6.18;4.55;;;20.00;99.90;;;;;;2113353;28;20464;-71
2021/07/18 22:58:36;;;;;;;5.00;4.47;;;20.00;99.90;;;;;;2113569;28;20027;-71
2021/07/18 22:59:37;;;;;;;7.00;4.47;;;20.00;99.90;;;;;;2114094;28;20095;-71
2021/07/18 23:00:49;;;;;;;5.38;4.30;;;20.00;99.90;;;;;;2113922;28;20047;-70
2021/07/18 23:01:50;;;;;;;8.25;4.88;;;20.00;99.90;;;;;;2113853;28;20517;-71
2021/07/18 23:02:51;;;;;;;7.32;4.60;;;20.00;99.90;;;;;;2113940;28;20020;-71
2021/07/18 23:03:51;;;;;;;9.15;4.93;;;20.00;99.90;;;;;;2113814;28;20020;-71
2021/07/18 23:04:52;;;;;;;6.90;4.82;;;20.00;99.90;;;;;;2112855;28;20510;-70
2021/07/18 23:05:53;;;;;;;6.05;4.65;;;20.00;99.90;;;;;;2104768;28;20509;-71
2021/07/18 23:06:55;;;;;;;5.57;4.47;;;20.10;99.90;;;;;;2104903;28;20080;-70
2021/07/18 23:07:56;;;;;;;6.78;4.55;;;20.00;99.90;;;;;;2113387;28;20104;-70
2021/07/18 23:08:57;;;;;;;5.95;4.40;;;20.10;99.90;;;;;;2113108;28;20081;-71
2021/07/18 23:09:57;;;;;;;6.57;4.53;;;20.10;99.90;;;;;;2113345;28;20043;-71
2021/07/18 23:10:58;;;;;;;6.90;4.65;;;20.10;99.90;;;;;;2113717;28;20046;-70
2021/07/18 23:11:58;;;;;;;6.43;4.90;;;20.10;99.90;;;;;;2113665;28;20036;-70
2021/07/18 23:13:00;;;;;;;5.90;4.57;;;20.10;99.90;;;;;;2113590;28;20063;-71
2021/07/18 23:14:00;;;;;;;6.30;4.90;;;20.10;99.90;;;;;;2113222;28;20030;-71
2021/07/18 23:15:05;;;;;;;9.70;4.80;;;20.10;99.90;;;;;;2112798;28;20050;-71
2021/07/18 23:16:05;;;;;;;7.43;4.82;;;20.10;99.90;;;;;;2113868;28;20066;-72
2021/07/18 23:17:07;;;;;;;6.20;4.63;;;20.10;99.90;;;;;;2104668;28;20403;-71
2021/07/18 23:18:08;;;;;;;7.00;4.55;;;20.10;99.90;;;;;;2104753;28;20042;-72
2021/07/18 23:19:09;;;;;;;5.57;4.55;;;20.10;99.90;;;;;;2113860;28;20102;-72
2021/07/18 23:20:12;;;;;;;7.88;4.88;;;20.00;99.90;;;;;;2112729;28;20060;-72
2021/07/18 23:21:12;;;;;;;6.43;4.70;;;20.00;99.90;;;;;;2104645;28;20050;-71
2021/07/18 23:22:13;;;;;;;7.47;4.68;;;20.10;99.90;;;;;;2113099;28;20462;-70
2021/07/18 23:23:14;;;;;;;6.80;4.72;;;20.10;99.90;;;;;;2113260;28;20039;-70
2021/07/18 23:24:14;;;;;;;6.70;4.70;;;20.10;99.90;;;;;;2113847;28;20032;-71
2021/07/18 23:25:15;;;;;;;6.45;4.65;;;20.10;99.90;;;;;;2113438;28;20051;-70
2021/07/18 23:26:16;;;;;;;6.93;4.45;;;20.10;99.90;;;;;;2113751;28;20031;-70
2021/07/18 23:27:17;;;;;;;4.88;4.38;;;20.10;99.90;;;;;;2113744;28;20402;-70
2021/07/18 23:28:17;;;;;;;4.53;4.13;;;20.10;99.90;;;;;;2113979;28;20036;-70
2021/07/18 23:29:18;;;;;;;7.63;4.70;;;20.10;99.90;;;;;;2113953;28;20028;-70
2021/07/18 23:30:19;;;;;;;6.53;4.55;;;20.10;99.90;;;;;;2114087;28;20096;-70
2021/07/18 23:31:20;;;;;;;6.68;4.65;;;20.10;99.90;;;;;;2112760;28;20020;-69
2021/07/18 23:32:20;;;;;;;5.47;4.38;;;20.20;99.90;;;;;;2113416;28;20016;-70
2021/07/18 23:33:21;;;;;;;6.88;4.80;;;20.20;99.90;;;;;;2113950;28;20027;-69
2021/07/18 23:34:22;;;;;;;4.90;4.45;;;20.20;99.90;;;;;;2113970;28;20034;-69
2021/07/18 23:35:23;;;;;;;5.90;4.60;;;20.10;99.90;;;;;;2113479;28;20047;-69
2021/07/18 23:36:23;;;;;;;5.65;4.60;;;20.10;99.90;;;;;;2113438;28;20454;-69
2021/07/18 23:37:26;;;;;;;5.78;4.32;;;20.10;99.90;;;;;;2113439;28;20028;-69
2021/07/18 23:38:26;;;;;;;7.63;5.00;;;20.10;99.90;;;;;;2113310;28;20020;-69
2021/07/18 23:39:27;;;;;;;7.00;4.72;;;20.10;99.90;;;;;;2113610;28;20031;-69
2021/07/18 23:40:27;;;;;;;7.75;5.00;;;20.10;99.90;;;;;;2104776;28;20060;-69
2021/07/18 23:41:28;;;;;;;6.93;4.38;;;20.10;99.90;;;;;;2104564;28;20075;-69
2021/07/18 23:42:29;;;;;;;5.40;4.60;;;20.00;99.90;;;;;;2112932;28;20494;-70
2021/07/18 23:43:30;;;;;;;7.88;4.80;;;20.00;99.90;;;;;;2113812;28;20055;-69
2021/07/18 23:44:31;;;;;;;8.52;4.85;;;20.00;99.90;;;;;;2113096;28;20035;-69
2021/07/18 23:45:31;;;;;;;7.85;4.60;;;19.90;99.90;;;;;;2112673;28;20020;-69
2021/07/18 23:46:32;;;;;;;5.55;4.53;;;19.90;99.90;;;;;;2113737;28;20031;-69
2021/07/18 23:47:32;;;;;;;6.78;4.82;;;19.90;99.90;;;;;;2113806;28;20035;-69
2021/07/18 23:48:33;;;;;;;7.05;4.90;;;19.80;99.90;;;;;;2113821;28;20015;-70
2021/07/18 23:49:34;;;;;;;6.70;4.97;;;19.80;99.90;;;;;;2114116;28;20032;-69
2021/07/18 23:50:34;;;;;;;7.80;4.90;;;19.80;99.90;;;;;;2114400;28;20103;-70
2021/07/18 23:51:35;;;;;;;6.22;4.78;;;19.80;99.90;;;;;;2113988;28;20039;-71
2021/07/18 23:52:36;;;;;;;8.20;5.10;;;19.70;99.90;;;;;;2114417;28;20024;-70
2021/07/18 23:53:37;;;;;;;5.25;4.75;;;19.70;99.90;;;;;;2115263;28;20510;-70
2021/07/18 23:54:37;;;;;;;6.18;4.70;;;19.70;99.90;;;;;;2115381;28;20081;-70
2021/07/18 23:55:38;;;;;;;7.57;4.65;;;19.70;99.90;;;;;;2114231;28;20038;-69
2021/07/18 23:56:39;;;;;;;7.07;4.65;;;19.70;99.90;;;;;;2113857;28;20027;-69
2021/07/18 23:57:40;;;;;;;7.63;4.70;;;19.70;99.90;;;;;;2113515;28;20023;-70
2021/07/18 23:58:40;;;;;;;6.43;4.80;;;19.70;99.90;;;;;;2113664;28;20019;-69
2021/07/18 23:59:41;;;;;;;7.50;5.03;;;19.70;99.90;;;;;;2113073;28;20028;-69
